Time;durP1;ratioP1;P1;durP2;ratioP2;P2;SDS_P1;SDS_P2;PMS_P1;PMS_P2;Temp;Humidity;BMP_temperature;BMP_pressure;BME280_temperature;BME280_humidity;BME280_pressure;Samples;Min_cycle;Max_cycle;Signal;HPM_P1;HPM_P2
2023/06/01 00:02:19;;;;;;;2.20;1.85;;;12.90;99.90;;;;;;5067229;28;20044;-75
2023/06/01 00:04:49;;;;;;;2.22;1.88;;;12.80;99.90;;;;;;5055985;28;20058;-75
2023/06/01 00:07:16;;;;;;;2.15;1.67;;;12.70;99.90;;;;;;5067788;28;20458;-75
2023/06/01 00:09:43;;;;;;;4.18;1.98;;;12.60;99.90;;;;;;5080029;28;20151;-75
2023/06/01 00:12:10;;;;;;;2.60;1.58;;;12.70;99.90;;;;;;5079111;28;20106;-75
2023/06/01 00:14:37;;;;;;;2.05;1.17;;;12.70;99.90;;;;;;5077343;28;20048;-75
2023/06/01 00:17:05;;;;;;;2.05;1.60;;;12.70;99.90;;;;;;5061812;28;20485;-75
2023/06/01 00:19:32;;;;;;;2.67;1.95;;;12.60;99.90;;;;;;5059149;28;20056;-74
2023/06/01 00:21:59;;;;;;;3.85;2.22;;;12.50;99.90;;;;;;5077882;28;20581;-75
2023/06/01 00:24:26;;;;;;;2.80;2.28;;;12.40;99.90;;;;;;5077797;28;20110;-75
2023/06/01 00:26:53;;;;;;;2.67;1.98;;;12.30;99.90;;;;;;5061048;28;20128;-75
2023/06/01 00:29:20;;;;;;;2.80;2.42;;;12.30;99.90;;;;;;5061939;28;20423;-74
2023/06/01 00:31:47;;;;;;;2.17;1.63;;;12.30;99.90;;;;;;5063729;28;20105;-74
2023/06/01 00:34:14;;;;;;;2.60;2.00;;;12.40;99.90;;;;;;5074497;28;20349;-75
2023/06/01 00:36:41;;;;;;;2.05;1.70;;;12.40;99.90;;;;;;5061203;28;20588;-75
2023/06/01 00:39:08;;;;;;;2.55;1.55;;;12.40;99.90;;;;;;5057635;28;20060;-75
2023/06/01 00:41:35;;;;;;;3.50;2.10;;;12.40;99.90;;;;;;5074098;28;20474;-75
2023/06/01 00:44:02;;;;;;;2.22;1.90;;;12.30;99.90;;;;;;5060259;28;20059;-75
2023/06/01 00:46:29;;;;;;;2.80;2.28;;;12.30;99.90;;;;;;5075963;28;20060;-75
2023/06/01 00:48:57;;;;;;;2.42;2.15;;;12.20;99.90;;;;;;5068304;28;20176;-75
2023/06/01 00:51:24;;;;;;;3.28;2.30;;;12.20;99.90;;;;;;5083107;28;20091;-74
2023/06/01 00:53:51;;;;;;;3.03;2.15;;;12.20;99.90;;;;;;5046176;28;20084;-75
2023/06/01 00:56:18;;;;;;;2.45;2.25;;;12.20;99.90;;;;;;5046158;28;20144;-75
2023/06/01 00:58:44;;;;;;;5.72;2.92;;;12.20;99.90;;;;;;5045194;28;20083;-75
2023/06/01 01:01:18;;;;;;;3.25;2.60;;;12.10;99.90;;;;;;5053614;28;20051;-75
2023/06/01 01:03:57;;;;;;;3.60;2.53;;;12.10;99.90;;;;;;5045913;28;20399;-76
2023/06/01 01:06:48;;;;;;;2.88;2.50;;;12.00;99.90;;;;;;5064069;28;20506;-75
2023/06/01 01:09:46;;;;;;;3.38;2.22;;;12.00;99.90;;;;;;5071824;28;20465;-76
2023/06/01 01:12:39;;;;;;;2.22;2.00;;;12.00;99.90;;;;;;5083458;28;20044;-76
2023/06/01 01:15:31;;;;;;;3.47;2.22;;;12.10;99.90;;;;;;5083887;28;20048;-76
2023/06/01 01:18:07;;;;;;;2.60;1.95;;;12.10;99.90;;;;;;5063623;28;20040;-76
2023/06/01 01:20:38;;;;;;;4.60;2.60;;;12.20;99.90;;;;;;5066905;28;20052;-76
2023/06/01 01:23:17;;;;;;;3.10;2.10;;;12.10;99.90;;;;;;5067524;28;20040;-75
2023/06/01 01:26:19;;;;;;;3.08;2.05;;;12.10;99.90;;;;;;5084810;28;20384;-76
2023/06/01 01:28:51;;;;;;;3.00;2.33;;;12.10;99.90;;;;;;5036384;28;20049;-75
2023/06/01 01:31:19;;;;;;;3.50;2.50;;;12.10;99.90;;;;;;5065032;28;20447;-76
2023/06/01 01:33:46;;;;;;;4.13;2.53;;;12.10;99.90;;;;;;5085428;28;20044;-76
2023/06/01 01:36:13;;;;;;;3.45;2.60;;;12.00;99.90;;;;;;5086891;28;20563;-77
2023/06/01 01:38:40;;;;;;;3.28;2.50;;;11.90;99.90;;;;;;5069803;28;20052;-76
2023/06/01 01:41:07;;;;;;;4.20;2.45;;;11.80;99.90;;;;;;5088856;28;20048;-77
2023/06/01 01:43:34;;;;;;;2.63;2.35;;;11.80;99.90;;;;;;5086483;28;20485;-76
2023/06/01 01:46:22;;;;;;;2.53;2.10;;;11.80;99.90;;;;;;5086992;28;20619;-76
2023/06/01 01:49:18;;;;;;;3.53;2.20;;;11.80;99.90;;;;;;5084800;28;20052;-77
2023/06/01 01:52:06;;;;;;;5.63;2.65;;;11.80;99.90;;;;;;5073226;28;20044;-76
2023/06/01 01:54:36;;;;;;;3.22;2.80;;;11.70;99.90;;;;;;5087475;28;20143;-76
2023/06/01 01:57:03;;;;;;;2.95;2.50;;;11.70;99.90;;;;;;5069653;28;20060;-76
2023/06/01 01:59:30;;;;;;;3.42;2.15;;;11.70;99.90;;;;;;5068926;28;20832;-76
2023/06/01 02:01:57;;;;;;;3.05;2.08;;;11.70;99.90;;;;;;5085422;28;20076;-78
2023/06/01 02:04:24;;;;;;;3.97;2.63;;;11.80;99.90;;;;;;5068566;28;20926;-76
2023/06/01 02:06:51;;;;;;;5.72;2.85;;;11.70;99.90;;;;;;5086836;28;20671;-76
2023/06/01 02:09:18;;;;;;;2.83;2.50;;;11.60;99.90;;;;;;5086040;28;20491;-77
2023/06/01 02:11:45;;;;;;;2.30;1.95;;;11.60;99.90;;;;;;5087606;28;20052;-77
2023/06/01 02:14:12;;;;;;;3.42;2.15;;;11.60;99.90;;;;;;5069198;28;20071;-76
2023/06/01 02:16:39;;;;;;;2.22;2.03;;;11.70;99.90;;;;;;5086480;28;20400;-76
2023/06/01 02:19:10;;;;;;;2.58;2.10;;;11.70;99.90;;;;;;5085684;28;20109;-76
2023/06/01 02:21:37;;;;;;;3.42;2.15;;;11.70;99.90;;;;;;5086021;28;20048;-77
2023/06/01 02:24:07;;;;;;;2.63;2.20;;;11.80;99.90;;;;;;5086690;28;20083;-76
2023/06/01 02:26:34;;;;;;;2.67;1.95;;;11.80;99.90;;;;;;5087742;28;20059;-76
2023/06/01 02:29:05;;;;;;;2.97;2.05;;;11.80;99.90;;;;;;5086634;28;20188;-76
2023/06/01 02:31:32;;;;;;;2.63;2.15;;;11.80;99.90;;;;;;5087657;28;20595;-76
2023/06/01 02:33:59;;;;;;;2.90;2.20;;;11.80;99.90;;;;;;5083833;28;20075;-76
2023/06/01 02:36:28;;;;;;;3.88;2.40;;;11.80;99.90;;;;;;5084770;28;20044;-76
2023/06/01 02:38:58;;;;;;;3.67;2.50;;;11.70;99.90;;;;;;5051992;28;20048;-77
2023/06/01 02:41:25;;;;;;;4.22;3.17;;;11.70;99.90;;;;;;5068995;28;20074;-76
2023/06/01 02:43:51;;;;;;;3.00;2.33;;;11.60;99.90;;;;;;5086590;28;20040;-76
2023/06/01 02:46:19;;;;;;;3.42;2.28;;;11.60;99.90;;;;;;5080851;28;20561;-76
2023/06/01 02:48:46;;;;;;;4.32;2.65;;;11.60;99.90;;;;;;5071041;28;20163;-77
2023/06/01 02:51:13;;;;;;;3.75;2.45;;;11.50;99.90;;;;;;5085072;28;20403;-76
2023/06/01 02:53:40;;;;;;;4.03;2.63;;;11.50;99.90;;;;;;5085606;28;20101;-76
2023/06/01 02:56:07;;;;;;;3.45;2.08;;;11.50;99.90;;;;;;5085438;28;20067;-76
2023/06/01 02:58:34;;;;;;;4.28;3.38;;;11.50;99.90;;;;;;5084927;28;20064;-76
2023/06/01 03:01:00;;;;;;;5.43;3.33;;;11.50;99.90;;;;;;5084505;28;20448;-76
2023/06/01 03:03:28;;;;;;;4.80;3.45;;;11.30;99.90;;;;;;5066401;28;20067;-76
2023/06/01 03:05:57;;;;;;;3.35;2.70;;;11.30;99.90;;;;;;5086218;28;20264;-76
2023/06/01 03:08:24;;;;;;;3.97;3.00;;;11.30;99.90;;;;;;5084949;28;20648;-76
2023/06/01 03:10:51;;;;;;;4.45;3.55;;;11.30;99.90;;;;;;5084668;28;20101;-76
2023/06/01 03:13:18;;;;;;;3.53;2.80;;;11.30;99.90;;;;;;5084617;28;20044;-76
2023/06/01 03:15:44;;;;;;;4.70;2.85;;;11.40;99.90;;;;;;5084710;28;20121;-76
2023/06/01 03:18:12;;;;;;;3.55;3.15;;;11.30;99.90;;;;;;5084574;28;20808;-76
2023/06/01 03:20:39;;;;;;;3.00;2.60;;;11.20;99.90;;;;;;5067414;28;20669;-76
2023/06/01 03:23:06;;;;;;;4.35;3.00;;;11.20;99.90;;;;;;5084327;28;20083;-76
2023/06/01 03:25:33;;;;;;;4.65;2.80;;;11.10;99.90;;;;;;5085338;28;20044;-76
2023/06/01 03:28:00;;;;;;;3.33;2.95;;;11.20;99.90;;;;;;5083796;28;20128;-77
2023/06/01 03:30:27;;;;;;;3.53;2.55;;;11.20;99.90;;;;;;5085224;28;20135;-76
2023/06/01 03:32:54;;;;;;;5.55;3.20;;;11.30;99.90;;;;;;5083285;28;20056;-76
2023/06/01 03:35:21;;;;;;;4.78;2.80;;;11.20;99.90;;;;;;5085119;28;20044;-76
2023/06/01 03:37:48;;;;;;;2.80;2.33;;;11.20;99.90;;;;;;5084416;28;20432;-76
2023/06/01 03:40:15;;;;;;;2.92;2.30;;;11.30;99.90;;;;;;5047594;28;20075;-76
2023/06/01 03:42:43;;;;;;;2.88;2.20;;;11.30;99.90;;;;;;5071544;28;20113;-76
2023/06/01 03:45:11;;;;;;;2.72;2.03;;;11.40;99.90;;;;;;5083220;28;20060;-76
2023/06/01 03:47:38;;;;;;;3.08;2.38;;;11.40;99.90;;;;;;5083759;28;20066;-76
2023/06/01 03:50:07;;;;;;;2.78;2.25;;;11.40;99.90;;;;;;5082337;28;20131;-77
2023/06/01 03:52:33;;;;;;;2.95;2.33;;;11.50;99.90;;;;;;5068031;28;20051;-76
2023/06/01 03:55:04;;;;;;;3.42;2.58;;;11.40;99.90;;;;;;5083807;28;20106;-76
2023/06/01 03:57:31;;;;;;;4.88;2.47;;;11.40;99.90;;;;;;5084097;28;20048;-77
2023/06/01 03:59:58;;;;;;;3.03;1.95;;;11.40;99.90;;;;;;5084268;28;20079;-76
2023/06/01 04:02:26;;;;;;;2.65;2.17;;;11.50;99.90;;;;;;5084098;28;20097;-76
2023/06/01 04:04:53;;;;;;;2.88;2.05;;;11.50;99.90;;;;;;5083533;28;20062;-76
2023/06/01 04:07:21;;;;;;;4.43;2.42;;;11.50;99.90;;;;;;5065027;28;20068;-76
2023/06/01 04:09:48;;;;;;;3.20;2.40;;;11.40;99.90;;;;;;5083422;28;20622;-76
2023/06/01 04:12:15;;;;;;;3.50;2.55;;;11.40;99.90;;;;;;5073726;28;20044;-76
2023/06/01 04:14:42;;;;;;;3.47;2.47;;;11.30;99.90;;;;;;5083546;28;20048;-76
2023/06/01 04:17:09;;;;;;;3.10;2.45;;;11.40;99.90;;;;;;5071477;28;20079;-76
2023/06/01 04:19:36;;;;;;;3.33;2.20;;;11.40;99.90;;;;;;5079816;28;20043;-76
2023/06/01 04:22:03;;;;;;;3.33;2.13;;;11.40;99.90;;;;;;5067068;28;20040;-76
2023/06/01 04:24:30;;;;;;;3.42;2.88;;;11.40;99.90;;;;;;5080709;28;20048;-76
2023/06/01 04:26:58;;;;;;;3.00;2.40;;;11.40;99.90;;;;;;5087879;28;20109;-75
2023/06/01 04:29:25;;;;;;;3.25;2.42;;;11.40;99.90;;;;;;5089551;28;20674;-76
2023/06/01 04:31:54;;;;;;;3.95;2.45;;;11.40;99.90;;;;;;5088976;28;20048;-76
2023/06/01 04:34:23;;;;;;;3.95;3.20;;;11.30;99.90;;;;;;5075965;28;20050;-76
2023/06/01 04:36:51;;;;;;;3.60;2.78;;;11.30;99.90;;;;;;5087526;28;20048;-77
2023/06/01 04:39:18;;;;;;;3.03;2.72;;;11.30;99.90;;;;;;5087674;28;20074;-76
2023/06/01 04:41:45;;;;;;;3.13;2.47;;;11.30;99.90;;;;;;5087880;28;20426;-76
2023/06/01 04:44:12;;;;;;;3.47;3.15;;;11.30;99.90;;;;;;5079981;28;20052;-76
2023/06/01 04:46:40;;;;;;;4.22;3.83;;;11.30;99.90;;;;;;5086449;28;20206;-75
2023/06/01 04:49:11;;;;;;;4.03;3.60;;;11.20;99.90;;;;;;5080346;28;20047;-76
2023/06/01 04:51:40;;;;;;;6.82;3.85;;;11.20;99.90;;;;;;5067372;28;20131;-76
2023/06/01 04:54:07;;;;;;;4.22;3.60;;;11.30;99.90;;;;;;5044514;28;20113;-75
2023/06/01 04:56:34;;;;;;;4.70;3.67;;;11.30;99.90;;;;;;5067069;28;20048;-74
2023/06/01 04:59:01;;;;;;;5.25;3.83;;;11.30;99.90;;;;;;5077792;28;20048;-76
2023/06/01 05:01:29;;;;;;;5.78;3.50;;;11.20;99.90;;;;;;5082087;28;20419;-76
2023/06/01 05:03:56;;;;;;;4.78;3.92;;;11.20;99.90;;;;;;5073228;28;20056;-76
2023/06/01 05:06:24;;;;;;;4.07;3.28;;;11.10;99.90;;;;;;5075942;28;20139;-76
2023/06/01 05:08:51;;;;;;;5.45;4.00;;;11.20;99.90;;;;;;5059466;28;20139;-76
2023/06/01 05:11:18;;;;;;;5.28;3.75;;;11.10;99.90;;;;;;5062130;28;20048;-77
2023/06/01 05:13:45;;;;;;;5.22;3.58;;;11.20;99.90;;;;;;5070985;28;20272;-76
2023/06/01 05:16:12;;;;;;;3.58;3.00;;;11.30;99.90;;;;;;5058111;28;20432;-76
2023/06/01 05:18:40;;;;;;;4.30;3.65;;;11.30;99.90;;;;;;5076399;28;20131;-76
2023/06/01 05:21:07;;;;;;;4.38;3.58;;;11.30;99.90;;;;;;5042290;28;20051;-76
2023/06/01 05:23:34;;;;;;;5.18;3.70;;;11.30;99.90;;;;;;5076964;28;20058;-76
2023/06/01 05:26:03;;;;;;;5.57;3.92;;;11.30;99.90;;;;;;5047070;28;20088;-75
2023/06/01 05:28:31;;;;;;;4.40;3.28;;;11.30;99.90;;;;;;5057051;28;20460;-75
2023/06/01 05:31:01;;;;;;;3.90;3.30;;;11.40;99.90;;;;;;5085018;28;20050;-75
2023/06/01 05:33:29;;;;;;;3.97;3.30;;;11.50;99.90;;;;;;5048184;28;20280;-76
2023/06/01 05:35:56;;;;;;;5.50;3.25;;;11.50;99.90;;;;;;5087279;28;20058;-74
2023/06/01 05:38:23;;;;;;;6.32;3.95;;;11.50;99.90;;;;;;5083262;28;20040;-75
2023/06/01 05:40:50;;;;;;;5.45;3.88;;;11.50;99.90;;;;;;5078942;28;20124;-75
2023/06/01 05:43:17;;;;;;;5.38;4.03;;;11.50;99.90;;;;;;5049476;28;20491;-75
2023/06/01 05:45:44;;;;;;;4.78;4.10;;;11.50;99.90;;;;;;5067043;28;20047;-75
2023/06/01 05:48:13;;;;;;;4.10;3.50;;;11.50;99.90;;;;;;5048679;28;20048;-76
2023/06/01 05:50:41;;;;;;;4.45;3.83;;;11.50;99.90;;;;;;5079367;28;20163;-82
2023/06/01 05:53:08;;;;;;;5.07;4.00;;;11.40;99.90;;;;;;5059074;28;20052;-75
2023/06/01 05:55:35;;;;;;;5.15;4.03;;;11.50;99.90;;;;;;5048544;28;20138;-77
2023/06/01 05:58:02;;;;;;;4.80;3.72;;;11.40;99.90;;;;;;5065280;28;20052;-76
2023/06/01 06:00:30;;;;;;;6.50;3.95;;;11.50;99.90;;;;;;5041427;28;20880;-75
2023/06/01 06:02:56;;;;;;;4.55;4.07;;;11.50;99.90;;;;;;5051533;28;20636;-75
2023/06/01 06:05:24;;;;;;;4.07;3.58;;;11.50;99.90;;;;;;5063644;28;20159;-76
2023/06/01 06:07:50;;;;;;;3.85;2.90;;;11.60;99.90;;;;;;5071923;28;20050;-75
2023/06/01 06:10:18;;;;;;;3.75;3.00;;;11.70;99.90;;;;;;5075570;28;20123;-75
2023/06/01 06:12:45;;;;;;;4.38;3.70;;;11.70;99.90;;;;;;5062519;28;20048;-75
2023/06/01 06:15:12;;;;;;;4.93;3.58;;;11.70;99.90;;;;;;5077948;28;20052;-75
2023/06/01 06:17:39;;;;;;;5.00;3.40;;;11.70;99.90;;;;;;5079126;28;20052;-74
2023/06/01 06:20:07;;;;;;;6.85;4.25;;;11.70;99.90;;;;;;5054778;28;20128;-76
2023/06/01 06:22:34;;;;;;;5.88;4.20;;;11.70;99.90;;;;;;5075054;28;20079;-75
2023/06/01 06:25:01;;;;;;;4.35;3.80;;;11.70;99.90;;;;;;5077689;28;20051;-75
2023/06/01 06:27:28;;;;;;;4.07;3.20;;;11.70;99.90;;;;;;5079226;28;20052;-75
2023/06/01 06:29:55;;;;;;;4.20;3.20;;;11.80;99.90;;;;;;5078814;28;20136;-76
2023/06/01 06:32:22;;;;;;;3.80;3.03;;;11.80;99.90;;;;;;5078926;28;20040;-75
2023/06/01 06:34:50;;;;;;;5.03;3.67;;;11.80;99.90;;;;;;5075027;28;20632;-74
2023/06/01 06:37:16;;;;;;;4.43;3.17;;;11.80;99.90;;;;;;5072569;28;20502;-75
2023/06/01 06:39:44;;;;;;;5.43;3.78;;;11.90;99.90;;;;;;5062504;28;20052;-75
2023/06/01 06:42:11;;;;;;;6.38;4.20;;;11.90;99.90;;;;;;5049887;28;20455;-75
2023/06/01 06:44:38;;;;;;;3.97;3.20;;;12.00;99.90;;;;;;5058023;28;20079;-84
2023/06/01 06:47:06;;;;;;;4.47;3.17;;;12.10;99.90;;;;;;5058375;28;20131;-78
2023/06/01 06:49:34;;;;;;;3.75;3.30;;;12.10;99.90;;;;;;5055978;28;20112;-78
2023/06/01 06:52:01;;;;;;;4.45;3.28;;;12.10;99.90;;;;;;5079479;28;20058;-75
2023/06/01 06:54:28;;;;;;;3.65;2.92;;;12.20;99.90;;;;;;5080656;28;20051;-76
2023/06/01 06:56:55;;;;;;;3.38;2.47;;;12.20;99.90;;;;;;5038856;28;20074;-76
2023/06/01 06:59:23;;;;;;;5.20;3.28;;;12.30;99.90;;;;;;5053529;28;20112;-76
2023/06/01 07:01:50;;;;;;;3.38;2.88;;;12.30;99.90;;;;;;5076537;28;20136;-76
2023/06/01 07:04:17;;;;;;;3.88;2.55;;;12.40;99.90;;;;;;5059376;28;20052;-76
2023/06/01 07:06:45;;;;;;;4.78;2.85;;;12.50;99.90;;;;;;5059846;28;20135;-76
2023/06/01 07:09:12;;;;;;;4.07;3.28;;;12.50;99.90;;;;;;5075844;28;20530;-76
2023/06/01 07:11:42;;;;;;;4.32;2.92;;;12.50;99.90;;;;;;5041125;28;20114;-76
2023/06/01 07:14:09;;;;;;;4.38;3.13;;;12.50;99.90;;;;;;5071573;28;20747;-75
2023/06/01 07:16:36;;;;;;;5.40;3.20;;;12.50;99.90;;;;;;5082363;28;20201;-76
2023/06/01 07:19:03;;;;;;;3.90;3.08;;;12.40;99.90;;;;;;5067436;28;20052;-75
2023/06/01 07:21:30;;;;;;;5.85;3.10;;;12.40;99.90;;;;;;5082817;28;20047;-76
2023/06/01 07:23:57;;;;;;;5.32;3.38;;;12.40;99.90;;;;;;5071622;28;20210;-76
2023/06/01 07:26:26;;;;;;;3.80;3.00;;;12.50;99.90;;;;;;5082166;28;20056;-76
2023/06/01 07:28:54;;;;;;;5.38;3.22;;;12.60;99.90;;;;;;5056650;28;20036;-76
2023/06/01 07:31:22;;;;;;;4.38;3.33;;;12.70;99.90;;;;;;5076661;28;20125;-76
2023/06/01 07:33:49;;;;;;;4.75;3.15;;;12.70;99.90;;;;;;5074360;28;20048;-76
2023/06/01 07:36:18;;;;;;;5.20;3.78;;;12.80;99.90;;;;;;5056427;28;20051;-76
2023/06/01 07:38:45;;;;;;;5.68;3.72;;;12.80;99.90;;;;;;5073423;28;20139;-76
2023/06/01 07:41:12;;;;;;;5.28;3.10;;;12.80;99.90;;;;;;5089248;28;20059;-77
2023/06/01 07:43:39;;;;;;;4.28;3.10;;;12.80;99.90;;;;;;5044291;28;20044;-76
2023/06/01 07:46:06;;;;;;;4.57;3.40;;;12.90;99.90;;;;;;5081258;28;20544;-76
2023/06/01 07:48:36;;;;;;;4.47;2.75;;;12.90;99.90;;;;;;5056878;28;20604;-76
2023/06/01 07:51:03;;;;;;;4.95;3.30;;;13.10;99.90;;;;;;5079464;28;20140;-76
2023/06/01 07:53:31;;;;;;;3.92;2.80;;;13.10;99.90;;;;;;5073010;28;20044;-78
2023/06/01 07:55:59;;;;;;;3.13;2.42;;;13.20;99.90;;;;;;5045901;28;20068;-76
2023/06/01 07:58:26;;;;;;;3.95;3.03;;;13.30;99.90;;;;;;5057996;28;20112;-77
2023/06/01 08:00:54;;;;;;;4.55;3.03;;;13.30;99.90;;;;;;5056523;28;20097;-76
2023/06/01 08:03:21;;;;;;;4.80;3.28;;;13.30;99.90;;;;;;5052774;28;20305;-78
2023/06/01 08:05:50;;;;;;;3.85;3.22;;;13.40;99.90;;;;;;5041353;28;20128;-77
2023/06/01 08:08:17;;;;;;;4.85;3.60;;;13.50;99.90;;;;;;5059065;28;20076;-77
2023/06/01 08:10:44;;;;;;;4.45;3.53;;;13.50;99.90;;;;;;5069473;28;20454;-76
2023/06/01 08:13:11;;;;;;;2.97;2.35;;;13.50;99.90;;;;;;5054853;28;20127;-75
2023/06/01 08:15:38;;;;;;;2.75;2.47;;;13.70;99.90;;;;;;5070412;28;20052;-76
2023/06/01 08:18:06;;;;;;;3.47;2.50;;;13.80;99.90;;;;;;5040469;28;20063;-75
2023/06/01 08:20:33;;;;;;;4.75;3.08;;;13.90;99.90;;;;;;5046726;28;20097;-76
2023/06/01 08:23:02;;;;;;;4.32;3.25;;;13.80;99.90;;;;;;5075407;28;20047;-76
2023/06/01 08:25:29;;;;;;;3.60;2.92;;;13.60;99.90;;;;;;5070920;28;20051;-76
2023/06/01 08:27:56;;;;;;;4.30;3.10;;;13.70;99.90;;;;;;5052383;28;20053;-75
2023/06/01 08:30:25;;;;;;;4.55;2.83;;;13.70;99.90;;;;;;5059256;28;20052;-76
2023/06/01 08:32:52;;;;;;;4.50;3.03;;;13.70;99.90;;;;;;5058118;28;20121;-75
2023/06/01 08:35:19;;;;;;;3.65;2.83;;;13.80;99.90;;;;;;5075806;28;20076;-76
2023/06/01 08:37:47;;;;;;;3.55;2.75;;;13.90;99.90;;;;;;5069256;28;20044;-76
2023/06/01 08:40:14;;;;;;;8.23;3.53;;;14.00;99.90;;;;;;5087779;28;20047;-76
2023/06/01 08:43:13;;;;;;;4.05;2.97;;;13.90;99.90;;;;;;5086357;28;20132;-76
2023/06/01 08:45:41;;;;;;;3.20;2.63;;;14.10;99.90;;;;;;5077839;28;20135;-76
2023/06/01 08:48:08;;;;;;;4.03;3.00;;;14.10;99.90;;;;;;5079794;28;20542;-76
2023/06/01 08:50:35;;;;;;;5.40;3.10;;;14.10;99.90;;;;;;5076899;28;20062;-76
2023/06/01 08:53:02;;;;;;;4.72;2.97;;;14.10;99.90;;;;;;5072550;28;20476;-76
2023/06/01 08:55:29;;;;;;;4.07;2.67;;;14.10;99.90;;;;;;5058177;28;20353;-76
2023/06/01 08:57:55;;;;;;;5.55;3.05;;;14.20;99.90;;;;;;5055307;28;20059;-76
2023/06/01 09:00:22;;;;;;;4.22;3.22;;;14.20;99.90;;;;;;5075644;28;20582;-76
2023/06/01 09:02:49;;;;;;;4.88;3.20;;;14.30;99.90;;;;;;5057997;28;20055;-75
2023/06/01 09:05:17;;;;;;;3.47;3.17;;;14.30;99.90;;;;;;5057829;28;20055;-76
2023/06/01 09:07:44;;;;;;;3.70;3.25;;;14.30;99.90;;;;;;5057361;28;20044;-76
2023/06/01 09:10:11;;;;;;;4.95;3.10;;;14.30;99.90;;;;;;5069847;28;20108;-76
2023/06/01 09:12:40;;;;;;;3.95;3.30;;;14.30;99.90;;;;;;5071109;28;20107;-76
2023/06/01 09:15:17;;;;;;;5.15;3.53;;;14.30;99.90;;;;;;5063778;28;20143;-76
2023/06/01 09:17:49;;;;;;;3.67;2.92;;;14.30;99.90;;;;;;5083467;28;20055;-77
2023/06/01 09:20:26;;;;;;;3.90;3.17;;;14.30;99.90;;;;;;5046494;28;20048;-76
2023/06/01 09:22:54;;;;;;;2.92;2.30;;;14.30;99.90;;;;;;5077521;28;20064;-76
2023/06/01 09:25:26;;;;;;;3.60;2.65;;;14.60;99.90;;;;;;5058012;28;20055;-76
2023/06/01 09:27:54;;;;;;;4.90;2.72;;;14.70;99.90;;;;;;5060793;28;20051;-76
2023/06/01 09:30:23;;;;;;;2.85;2.15;;;14.80;99.90;;;;;;5075747;28;20040;-76
2023/06/01 09:32:52;;;;;;;3.28;2.78;;;14.90;99.90;;;;;;5078659;28;20598;-75
2023/06/01 09:35:38;;;;;;;3.63;2.75;;;14.80;99.90;;;;;;5075831;28;20059;-76
2023/06/01 09:38:06;;;;;;;3.72;2.75;;;14.90;99.90;;;;;;5089012;28;20070;-76
2023/06/01 09:40:34;;;;;;;3.22;2.53;;;14.90;99.90;;;;;;5079304;28;20481;-76
2023/06/01 09:43:02;;;;;;;3.78;2.55;;;14.90;99.90;;;;;;5061365;28;20078;-76
2023/06/01 09:45:30;;;;;;;3.15;2.20;;;14.90;99.90;;;;;;5085758;28;20589;-77
2023/06/01 09:48:15;;;;;;;3.35;2.83;;;15.10;99.90;;;;;;5044496;28;20052;-76
2023/06/01 09:50:43;;;;;;;3.40;2.55;;;15.30;99.90;;;;;;5077676;28;20566;-76
2023/06/01 09:53:10;;;;;;;3.63;2.55;;;15.40;99.90;;;;;;5061572;28;20048;-76
2023/06/01 09:55:57;;;;;;;3.28;2.45;;;15.50;99.90;;;;;;5078205;28;20052;-76
2023/06/01 09:58:25;;;;;;;4.63;2.42;;;15.50;99.90;;;;;;5068387;28;20044;-77
2023/06/01 10:00:52;;;;;;;2.67;2.10;;;15.70;99.90;;;;;;5077909;28;20044;-76
2023/06/01 10:03:21;;;;;;;4.55;3.35;;;15.60;99.90;;;;;;5076441;28;20044;-75
2023/06/01 10:05:48;;;;;;;5.07;3.08;;;15.50;99.90;;;;;;5057151;28;20059;-76
2023/06/01 10:08:16;;;;;;;3.83;2.55;;;15.60;99.90;;;;;;5059217;28;20060;-76
2023/06/01 10:10:44;;;;;;;3.05;2.50;;;15.70;99.90;;;;;;5078005;28;20949;-76
2023/06/01 10:13:12;;;;;;;4.53;2.80;;;15.80;99.90;;;;;;5077553;28;20055;-76
2023/06/01 10:15:38;;;;;;;3.65;2.58;;;15.80;99.90;;;;;;5079179;28;20636;-76
2023/06/01 10:18:05;;;;;;;3.45;2.35;;;16.00;99.90;;;;;;5073628;28;20139;-75
2023/06/01 10:20:55;;;;;;;3.05;2.63;;;16.00;99.90;;;;;;5065615;28;20051;-75
2023/06/01 10:23:22;;;;;;;3.95;3.35;;;16.10;99.90;;;;;;5076333;28;20063;-76
2023/06/01 10:25:58;;;;;;;4.35;2.90;;;16.20;99.90;;;;;;5073539;28;20070;-75
2023/06/01 10:28:29;;;;;;;3.08;2.30;;;16.40;99.90;;;;;;5077107;28;20117;-75
2023/06/01 10:31:38;;;;;;;2.95;2.40;;;16.60;99.90;;;;;;5056622;28;20049;-77
2023/06/01 10:34:06;;;;;;;3.00;2.42;;;16.60;99.90;;;;;;5076384;28;20047;-75
2023/06/01 10:36:51;;;;;;;3.17;2.58;;;16.60;99.90;;;;;;5078824;28;20152;-75
2023/06/01 10:39:36;;;;;;;4.00;3.00;;;16.60;99.90;;;;;;5077811;28;20048;-75
2023/06/01 10:42:14;;;;;;;4.05;3.38;;;16.40;99.90;;;;;;5057201;28;20079;-75
2023/06/01 10:44:47;;;;;;;3.90;2.55;;;16.30;99.90;;;;;;5086642;28;20044;-74
2023/06/01 10:47:20;;;;;;;3.55;3.17;;;16.30;99.90;;;;;;5062794;28;20707;-74
2023/06/01 10:49:46;;;;;;;4.72;3.28;;;16.50;99.90;;;;;;5074866;28;20048;-77
2023/06/01 10:52:29;;;;;;;4.35;3.00;;;16.80;99.90;;;;;;5076198;28;20143;-78
2023/06/01 10:55:11;;;;;;;3.40;2.57;;;16.90;99.90;;;;;;5080099;28;20051;-77
2023/06/01 10:57:38;;;;;;;3.30;2.53;;;17.10;99.90;;;;;;5077504;28;20316;-77
2023/06/01 11:00:26;;;;;;;4.70;2.83;;;17.40;99.90;;;;;;5057460;28;20075;-77
2023/06/01 11:03:03;;;;;;;3.65;2.67;;;17.60;99.90;;;;;;5042413;28;20129;-76
2023/06/01 11:05:47;;;;;;;3.85;2.63;;;17.70;99.90;;;;;;5075663;28;20797;-77
2023/06/01 11:08:28;;;;;;;3.15;2.58;;;17.90;99.90;;;;;;5056648;28;20076;-76
2023/06/01 11:10:56;;;;;;;3.80;2.72;;;18.10;99.90;;;;;;5078394;28;20052;-75
2023/06/01 11:13:27;;;;;;;3.17;2.53;;;18.30;99.90;;;;;;5063475;28;20457;-76
2023/06/01 11:16:07;;;;;;;3.30;2.60;;;18.30;99.90;;;;;;5078943;28;20052;-76
2023/06/01 11:19:10;;;;;;;5.03;3.40;;;18.00;99.90;;;;;;5074291;28;20112;-76
2023/06/01 11:21:36;;;;;;;5.00;3.92;;;17.80;99.90;;;;;;5073164;28;20490;-75
2023/06/01 11:24:13;;;;;;;5.07;3.50;;;17.40;99.90;;;;;;5065003;28;20559;-76
2023/06/01 11:26:44;;;;;;;4.00;3.20;;;17.40;99.90;;;;;;5077150;28;20123;-75
2023/06/01 11:29:16;;;;;;;3.38;3.05;;;17.60;99.90;;;;;;5068436;28;20036;-75
2023/06/01 11:31:45;;;;;;;4.30;2.90;;;17.80;99.90;;;;;;5055427;28;20045;-74
2023/06/01 11:34:14;;;;;;;4.30;2.80;;;17.90;99.90;;;;;;5074535;28;20147;-75
2023/06/01 11:36:47;;;;;;;5.05;3.60;;;18.10;99.90;;;;;;5057090;28;20060;-76
2023/06/01 11:39:22;;;;;;;4.47;3.30;;;18.20;99.90;;;;;;5076179;28;20147;-75
2023/06/01 11:42:12;;;;;;;4.72;2.88;;;18.30;99.90;;;;;;5074554;28;20105;-75
2023/06/01 11:44:41;;;;;;;5.20;3.40;;;18.40;99.90;;;;;;5057074;28;20048;-75
2023/06/01 11:47:09;;;;;;;4.05;2.60;;;18.60;99.90;;;;;;5053799;28;20048;-75
2023/06/01 11:49:46;;;;;;;6.45;3.60;;;18.90;99.70;;;;;;5076846;28;20135;-74
2023/06/01 11:52:13;;;;;;;4.60;4.10;;;19.00;99.30;;;;;;5083772;28;20056;-75
2023/06/01 11:54:40;;;;;;;5.57;3.40;;;19.10;99.50;;;;;;5072688;28;20126;-74
2023/06/01 11:57:07;;;;;;;4.30;3.08;;;19.80;99.20;;;;;;5070366;28;20156;-75
2023/06/01 11:59:42;;;;;;;3.00;2.47;;;19.90;98.00;;;;;;5081741;28;20115;-76
2023/06/01 12:02:26;;;;;;;2.63;2.15;;;20.70;98.10;;;;;;5093345;28;20090;-75
2023/06/01 12:05:08;;;;;;;4.28;3.47;;;20.90;97.30;;;;;;5073040;28;20076;-75
2023/06/01 12:07:54;;;;;;;3.67;2.55;;;20.30;97.20;;;;;;5078381;28;20087;-75
2023/06/01 12:10:21;;;;;;;3.65;2.60;;;20.40;97.70;;;;;;5090482;28;20129;-75
2023/06/01 12:12:49;;;;;;;4.07;3.25;;;20.50;97.40;;;;;;5083035;28;20052;-74
2023/06/01 12:15:18;;;;;;;6.03;3.67;;;20.20;97.00;;;;;;5071115;28;20052;-75
2023/06/01 12:17:55;;;;;;;4.05;3.22;;;19.60;98.10;;;;;;5059440;28;20058;-75
2023/06/01 12:20:52;;;;;;;4.25;3.03;;;19.80;97.60;;;;;;5073795;28;20465;-75
2023/06/01 12:23:20;;;;;;;3.85;3.03;;;19.70;98.10;;;;;;5075980;28;20141;-75
2023/06/01 12:25:59;;;;;;;4.32;3.28;;;19.80;97.70;;;;;;5065762;28;20155;-76
2023/06/01 12:28:29;;;;;;;4.25;3.53;;;19.90;97.80;;;;;;5068592;28;20199;-76
2023/06/01 12:31:10;;;;;;;3.63;3.03;;;19.70;97.50;;;;;;5086992;28;20143;-75
2023/06/01 12:33:37;;;;;;;4.85;3.05;;;19.50;97.80;;;;;;5084037;28;20467;-75
2023/06/01 12:36:05;;;;;;;4.35;3.40;;;19.20;98.10;;;;;;5074596;28;20139;-76
2023/06/01 12:38:57;;;;;;;3.42;2.97;;;20.00;97.60;;;;;;5068888;28;20052;-76
2023/06/01 12:41:24;;;;;;;3.45;2.80;;;20.80;96.60;;;;;;5091169;28;20441;-76
2023/06/01 12:43:51;;;;;;;3.60;2.80;;;21.50;95.70;;;;;;5047801;28;20043;-76
2023/06/01 12:46:21;;;;;;;4.00;3.22;;;21.90;95.50;;;;;;5085228;28;20047;-77
2023/06/01 12:48:49;;;;;;;4.30;3.25;;;22.20;95.10;;;;;;5081859;28;20352;-77
2023/06/01 12:51:16;;;;;;;4.57;4.10;;;22.30;94.90;;;;;;5082933;28;20419;-76
2023/06/01 12:53:43;;;;;;;4.57;3.70;;;22.50;94.50;;;;;;5076816;28;20063;-76
2023/06/01 12:56:10;;;;;;;5.28;3.60;;;22.70;94.10;;;;;;5077186;28;20159;-76
2023/06/01 12:58:38;;;;;;;4.90;3.65;;;22.90;93.90;;;;;;5087612;28;20055;-76
2023/06/01 13:01:05;;;;;;;4.55;4.05;;;23.00;93.40;;;;;;5077488;28;20040;-76
2023/06/01 13:03:33;;;;;;;3.92;3.45;;;23.10;93.40;;;;;;5081942;28;20052;-76